createdAt,value
2023-02-09T00:00:18.292Z,1032.81
2023-02-09T00:01:18.173Z,1032.81
2023-02-09T00:02:18.206Z,1032.82
2023-02-09T00:03:18.131Z,1032.75
2023-02-09T00:04:18.130Z,1032.74
2023-02-09T00:05:18.005Z,1032.78
2023-02-09T00:06:18.045Z,1032.76
2023-02-09T00:07:18.751Z,1032.71
2023-02-09T00:08:32.865Z,1032.71
2023-02-09T00:09:18.752Z,1032.67
2023-02-09T00:10:17.958Z,1032.62
2023-02-09T00:11:17.768Z,1032.67
2023-02-09T00:12:17.796Z,1032.62
2023-02-09T00:13:17.705Z,1032.69
2023-02-09T00:14:19.632Z,1032.63
2023-02-09T00:15:17.625Z,1032.59
2023-02-09T00:16:17.676Z,1032.63
2023-02-09T00:17:17.523Z,1032.61
2023-02-09T00:18:17.538Z,1032.62
2023-02-09T00:19:17.491Z,1032.65
2023-02-09T00:20:17.400Z,1032.61
2023-02-09T00:21:17.378Z,1032.59
2023-02-09T00:22:17.322Z,1032.61
2023-02-09T00:23:17.365Z,1032.61
2023-02-09T00:24:17.354Z,1032.60
2023-02-09T00:25:17.205Z,1032.61
2023-02-09T00:26:17.163Z,1032.61
2023-02-09T00:27:17.110Z,1032.59
2023-02-09T00:28:17.111Z,1032.57
2023-02-09T00:29:17.038Z,1032.55
2023-02-09T00:30:17.121Z,1032.51
2023-02-09T00:31:17.131Z,1032.49
2023-02-09T00:32:16.911Z,1032.54
2023-02-09T00:33:16.862Z,1032.51
2023-02-09T00:34:16.843Z,1032.48
2023-02-09T00:35:16.798Z,1032.46
2023-02-09T00:36:16.844Z,1032.46
2023-02-09T00:37:16.713Z,1032.38
2023-02-09T00:38:16.670Z,1032.40
2023-02-09T00:39:16.619Z,1032.33
2023-02-09T00:40:16.615Z,1032.37
2023-02-09T00:41:16.567Z,1032.38
2023-02-09T00:42:16.572Z,1032.36
2023-02-09T00:43:16.513Z,1032.37
2023-02-09T00:44:16.416Z,1032.41
2023-02-09T00:45:16.381Z,1032.32
2023-02-09T00:46:16.359Z,1032.35
2023-02-09T00:47:16.354Z,1032.42
2023-02-09T00:48:16.308Z,1032.39
2023-02-09T00:49:16.199Z,1032.42
2023-02-09T00:50:16.237Z,1032.41
2023-02-09T00:51:16.114Z,1032.39
2023-02-09T00:52:16.086Z,1032.42
2023-02-09T00:53:16.060Z,1032.39
2023-02-09T00:54:16.075Z,1032.36
2023-02-09T00:55:15.961Z,1032.35
2023-02-09T00:56:15.906Z,1032.38
2023-02-09T00:57:15.885Z,1032.34
2023-02-09T00:58:15.855Z,1032.38
2023-02-09T00:59:15.814Z,1032.40
2023-02-09T01:00:15.839Z,1032.38
2023-02-09T01:01:15.755Z,1032.34
2023-02-09T01:02:15.695Z,1032.33
2023-02-09T01:03:15.642Z,1032.31
2023-02-09T01:04:15.622Z,1032.28
2023-02-09T01:05:15.562Z,1032.28
2023-02-09T01:06:15.569Z,1032.23
2023-02-09T01:07:15.487Z,1032.27
2023-02-09T01:08:15.428Z,1032.26
2023-02-09T01:09:15.373Z,1032.24
2023-02-09T01:10:15.351Z,1032.22
2023-02-09T01:11:15.294Z,1032.20
2023-02-09T01:12:15.332Z,1032.20
2023-02-09T01:13:15.204Z,1032.19
2023-02-09T01:14:15.164Z,1032.21
2023-02-09T01:15:15.144Z,1032.20
2023-02-09T01:16:15.201Z,1032.20
2023-02-09T01:17:15.102Z,1032.17
2023-02-09T01:18:15.008Z,1032.17
2023-02-09T01:19:14.971Z,1032.17
2023-02-09T01:20:14.931Z,1032.18
2023-02-09T01:21:14.885Z,1032.20
2023-02-09T01:22:14.839Z,1032.19
2023-02-09T01:23:14.861Z,1032.20
2023-02-09T01:24:14.751Z,1032.18
2023-02-09T01:25:14.710Z,1032.19
2023-02-09T01:26:14.673Z,1032.16
2023-02-09T01:27:14.628Z,1032.13
2023-02-09T01:28:14.642Z,1032.14
2023-02-09T01:29:14.609Z,1032.11
2023-02-09T01:30:14.550Z,1032.12
2023-02-09T01:31:14.528Z,1032.06
2023-02-09T01:32:14.479Z,1032.05
2023-02-09T01:33:14.385Z,1032.05
2023-02-09T01:34:14.360Z,1032.08
2023-02-09T01:35:14.370Z,1032.05
2023-02-09T01:36:14.280Z,1032.03
2023-02-09T01:37:14.214Z,1032.00
2023-02-09T01:38:14.176Z,1032.01
2023-02-09T01:39:14.150Z,1031.96
2023-02-09T01:40:14.095Z,1031.91
2023-02-09T01:41:14.123Z,1031.93
2023-02-09T01:42:14.023Z,1031.89
2023-02-09T01:43:13.994Z,1031.90
2023-02-09T01:44:13.943Z,1031.88
2023-02-09T01:45:13.934Z,1031.86
2023-02-09T01:46:13.935Z,1031.84
2023-02-09T01:47:14.012Z,1031.80
2023-02-09T01:48:13.865Z,1031.80
2023-02-09T01:49:13.796Z,1031.78
2023-02-09T01:50:13.691Z,1031.74
2023-02-09T01:51:13.639Z,1031.71
2023-02-09T01:52:13.602Z,1031.71
2023-02-09T01:53:13.608Z,1031.66
2023-02-09T01:54:13.694Z,1031.69
2023-02-09T01:55:13.471Z,1031.69
2023-02-09T01:56:13.426Z,1031.65
2023-02-09T01:57:13.481Z,1031.64
2023-02-09T01:58:13.348Z,1031.63
2023-02-09T01:59:13.319Z,1031.62
2023-02-09T02:00:13.271Z,1031.54
2023-02-09T02:01:13.272Z,1031.62
2023-02-09T02:02:13.290Z,1031.60
2023-02-09T02:03:13.155Z,1031.56
2023-02-09T02:04:13.101Z,1031.60
2023-02-09T02:05:13.064Z,1031.56
2023-02-09T02:06:13.040Z,1031.52
2023-02-09T02:07:12.991Z,1031.48
2023-02-09T02:08:13.014Z,1031.46
2023-02-09T02:09:12.907Z,1031.47
2023-02-09T02:10:12.858Z,1031.43
2023-02-09T02:11:12.811Z,1031.39
2023-02-09T02:12:12.791Z,1031.37
2023-02-09T02:13:12.812Z,1031.38
2023-02-09T02:14:12.686Z,1031.34
2023-02-09T02:15:12.640Z,1031.31
2023-02-09T02:16:12.721Z,1031.29
2023-02-09T02:17:12.584Z,1031.28
2023-02-09T02:18:12.535Z,1031.30
2023-02-09T02:19:12.558Z,1031.29
2023-02-09T02:20:12.431Z,1031.30
2023-02-09T02:21:12.409Z,1031.29
2023-02-09T02:22:12.368Z,1031.25
2023-02-09T02:23:12.325Z,1031.21
2023-02-09T02:24:12.270Z,1031.20
2023-02-09T02:25:12.297Z,1031.14
2023-02-09T02:26:12.192Z,1031.18
2023-02-09T02:27:12.142Z,1031.18
2023-02-09T02:28:12.122Z,1031.18
2023-02-09T02:29:12.054Z,1031.18
2023-02-09T02:30:12.080Z,1031.20
2023-02-09T02:31:12.226Z,1031.20
2023-02-09T02:32:11.984Z,1031.22
2023-02-09T02:33:11.892Z,1031.19
2023-02-09T02:34:11.900Z,1031.21
2023-02-09T02:35:11.876Z,1031.19
2023-02-09T02:36:11.785Z,1031.23
2023-02-09T02:37:11.731Z,1031.22
2023-02-09T02:38:11.758Z,1031.21
2023-02-09T02:39:11.737Z,1031.18
2023-02-09T02:40:11.630Z,1031.15
2023-02-09T02:41:11.611Z,1031.14
2023-02-09T02:42:12.387Z,1031.15
2023-02-09T02:43:11.478Z,1031.19
2023-02-09T02:44:11.441Z,1031.15
2023-02-09T02:45:11.388Z,1031.15
2023-02-09T02:46:11.417Z,1031.14
2023-02-09T02:47:11.395Z,1031.15
2023-02-09T02:48:11.290Z,1031.16
2023-02-09T02:49:11.231Z,1031.09
2023-02-09T02:50:11.193Z,1031.07
2023-02-09T02:51:11.140Z,1031.03
2023-02-09T02:52:11.133Z,1031.02
2023-02-09T02:53:11.132Z,1031.04
2023-02-09T02:54:11.029Z,1030.99
2023-02-09T02:55:10.985Z,1031.00
2023-02-09T02:56:10.947Z,1031.01
2023-02-09T02:57:10.910Z,1031.03
2023-02-09T02:58:10.867Z,1030.96
2023-02-09T02:59:10.890Z,1030.95
2023-02-09T03:00:10.787Z,1030.95
2023-02-09T03:01:10.784Z,1030.92
2023-02-09T03:02:10.714Z,1030.91
2023-02-09T03:03:10.664Z,1030.91
2023-02-09T03:04:10.626Z,1030.86
2023-02-09T03:05:10.656Z,1030.84
2023-02-09T03:06:10.533Z,1030.78
2023-02-09T03:07:10.505Z,1030.79
2023-02-09T03:08:10.499Z,1030.78
2023-02-09T03:09:10.432Z,1030.77
2023-02-09T03:10:10.377Z,1030.76
2023-02-09T03:11:10.376Z,1030.83
2023-02-09T03:12:10.288Z,1030.79
2023-02-09T03:13:10.252Z,1030.80
2023-02-09T03:14:10.216Z,1030.78
2023-02-09T03:15:10.165Z,1030.82
2023-02-09T03:16:10.160Z,1030.78
2023-02-09T03:17:10.189Z,1030.73
2023-02-09T03:18:10.773Z,1030.78
2023-02-09T03:19:10.010Z,1030.75
2023-02-09T03:20:09.961Z,1030.75
2023-02-09T03:21:09.924Z,1030.77
2023-02-09T03:22:09.877Z,1030.74
2023-02-09T03:23:09.886Z,1030.76
2023-02-09T03:24:09.812Z,1030.75
2023-02-09T03:25:09.740Z,1030.74
2023-02-09T03:26:09.725Z,1030.82
2023-02-09T03:27:09.695Z,1030.71
2023-02-09T03:28:09.694Z,1030.76
2023-02-09T03:29:09.673Z,1030.71
2023-02-09T03:30:09.636Z,1030.74
2023-02-09T03:31:09.543Z,1030.72
2023-02-09T03:32:09.456Z,1030.66
2023-02-09T03:33:10.646Z,1030.66
2023-02-09T03:34:09.395Z,1030.68
2023-02-09T03:35:09.489Z,1030.64
2023-02-09T03:36:09.302Z,1030.60
2023-02-09T03:37:09.264Z,1030.61
2023-02-09T03:38:09.226Z,1030.59
2023-02-09T03:39:09.242Z,1030.58
2023-02-09T03:40:09.139Z,1030.59
2023-02-09T03:41:09.106Z,1030.54
2023-02-09T03:42:09.122Z,1030.55
2023-02-09T03:43:09.016Z,1030.55
2023-02-09T03:44:08.955Z,1030.59
2023-02-09T03:45:08.984Z,1030.55
2023-02-09T03:46:08.904Z,1030.57
2023-02-09T03:47:08.846Z,1030.58
2023-02-09T03:48:08.796Z,1030.55
2023-02-09T03:49:08.758Z,1030.51
2023-02-09T03:50:08.708Z,1030.55
2023-02-09T03:51:08.992Z,1030.56
2023-02-09T03:52:08.648Z,1030.58
2023-02-09T03:53:08.611Z,1030.56
2023-02-09T03:54:08.543Z,1030.58
2023-02-09T03:55:08.510Z,1030.57
2023-02-09T03:56:08.485Z,1030.54
2023-02-09T03:57:08.525Z,1030.57
2023-02-09T03:58:08.434Z,1030.55
2023-02-09T03:59:08.339Z,1030.56
2023-02-09T04:00:08.330Z,1030.61
2023-02-09T04:01:08.309Z,1030.57
2023-02-09T04:02:08.266Z,1030.59
2023-02-09T04:03:08.257Z,1030.52
2023-02-09T04:04:08.139Z,1030.55
2023-02-09T04:05:08.087Z,1030.57
2023-02-09T04:06:08.038Z,1030.55
2023-02-09T04:07:08.002Z,1030.56
2023-02-09T04:08:07.967Z,1030.56
2023-02-09T04:09:07.982Z,1030.55
2023-02-09T04:10:07.908Z,1030.50
2023-02-09T04:11:07.906Z,1030.48
2023-02-09T04:12:07.800Z,1030.45
2023-02-09T04:13:07.767Z,1030.47
2023-02-09T04:14:07.782Z,1030.42
2023-02-09T04:15:07.685Z,1030.46
2023-02-09T04:16:07.700Z,1030.46
2023-02-09T04:17:07.616Z,1030.48
2023-02-09T04:18:07.562Z,1030.45
2023-02-09T04:19:07.522Z,1030.53
2023-02-09T04:20:07.537Z,1030.47
2023-02-09T04:21:07.454Z,1030.47
2023-02-09T04:22:07.390Z,1030.48
2023-02-09T04:23:07.362Z,1030.43
2023-02-09T04:24:07.306Z,1030.49
2023-02-09T04:25:07.274Z,1030.44
2023-02-09T04:26:07.281Z,1030.44
2023-02-09T04:27:07.172Z,1030.44
2023-02-09T04:28:07.166Z,1030.45
2023-02-09T04:29:07.108Z,1030.47
2023-02-09T04:30:07.056Z,1030.48
2023-02-09T04:31:07.079Z,1030.44
2023-02-09T04:32:07.160Z,1030.43
2023-02-09T04:33:06.934Z,1030.44
2023-02-09T04:34:06.917Z,1030.39
2023-02-09T04:35:06.855Z,1030.43
2023-02-09T04:36:06.822Z,1030.46
2023-02-09T04:37:06.794Z,1030.43
2023-02-09T04:38:06.781Z,1030.43
2023-02-09T04:39:06.688Z,1030.46
2023-02-09T04:40:07.853Z,1030.45
2023-02-09T04:41:06.609Z,1030.41
2023-02-09T04:42:06.554Z,1030.41
2023-02-09T04:43:06.527Z,1030.43
2023-02-09T04:44:06.481Z,1030.44
2023-02-09T04:45:06.521Z,1030.48
2023-02-09T04:46:06.488Z,1030.51
2023-02-09T04:47:06.354Z,1030.49
2023-02-09T04:48:06.341Z,1030.46
2023-02-09T04:49:06.288Z,1030.47
2023-02-09T04:50:06.246Z,1030.40
2023-02-09T04:51:06.275Z,1030.44
2023-02-09T04:52:06.157Z,1030.41
2023-02-09T04:53:06.127Z,1030.45
2023-02-09T04:54:06.080Z,1030.41
2023-02-09T04:55:06.035Z,1030.41
2023-02-09T04:56:06.062Z,1030.41
2023-02-09T04:57:05.941Z,1030.37
2023-02-09T04:58:05.894Z,1030.36
2023-02-09T04:59:05.861Z,1030.31
2023-02-09T05:00:05.832Z,1030.36
2023-02-09T05:01:05.806Z,1030.35
2023-02-09T05:02:05.793Z,1030.28
2023-02-09T05:03:05.716Z,1030.30
2023-02-09T05:04:05.662Z,1030.30
2023-02-09T05:05:05.628Z,1030.29
2023-02-09T05:06:05.592Z,1030.26
2023-02-09T05:07:05.527Z,1030.26
2023-02-09T05:08:05.580Z,1030.22
2023-02-09T05:09:05.505Z,1030.24
2023-02-09T05:10:05.404Z,1030.28
2023-02-09T05:11:05.362Z,1030.28
2023-02-09T05:12:05.337Z,1030.25
2023-02-09T05:13:05.274Z,1030.28
2023-02-09T05:14:05.327Z,1030.33
2023-02-09T05:15:05.197Z,1030.34
2023-02-09T05:16:05.169Z,1030.32
2023-02-09T05:17:05.126Z,1030.37
2023-02-09T05:18:05.075Z,1030.35
2023-02-09T05:19:05.028Z,1030.38
2023-02-09T05:20:05.044Z,1030.37
2023-02-09T05:21:04.960Z,1030.39
2023-02-09T05:22:04.907Z,1030.37
2023-02-09T05:23:04.874Z,1030.41
2023-02-09T05:24:04.826Z,1030.39
2023-02-09T05:25:04.791Z,1030.37
2023-02-09T05:26:04.966Z,1030.34
2023-02-09T05:27:05.139Z,1030.34
2023-02-09T05:28:05.005Z,1030.33
2023-02-09T05:29:04.644Z,1030.28
2023-02-09T05:30:04.584Z,1030.30
2023-02-09T05:31:04.563Z,1030.28
2023-02-09T05:32:04.693Z,1030.27
2023-02-09T05:33:04.488Z,1030.29
2023-02-09T05:34:05.403Z,1030.29
2023-02-09T05:35:04.453Z,1030.24
2023-02-09T05:36:04.376Z,1030.27
2023-02-09T05:37:04.390Z,1030.32
2023-02-09T05:38:04.398Z,1030.29
2023-02-09T05:39:06.298Z,1030.32
2023-02-09T05:40:04.174Z,1030.30
2023-02-09T05:41:04.159Z,1030.29
2023-02-09T05:42:04.072Z,1030.30
2023-02-09T05:43:04.118Z,1030.29
2023-02-09T05:44:03.993Z,1030.27
2023-02-09T05:45:04.785Z,1030.26
2023-02-09T05:46:06.366Z,1030.23
2023-02-09T05:47:03.875Z,1030.23
2023-02-09T05:48:03.844Z,1030.24
2023-02-09T05:49:03.860Z,1030.20
2023-02-09T05:50:03.747Z,1030.18
2023-02-09T05:51:03.723Z,1030.18
2023-02-09T05:52:03.682Z,1030.20
2023-02-09T05:53:03.659Z,1030.18
2023-02-09T05:54:03.645Z,1030.15
2023-02-09T05:55:03.689Z,1030.16
2023-02-09T05:56:03.502Z,1030.13
2023-02-09T05:57:03.502Z,1030.17
2023-02-09T05:58:03.432Z,1030.20
2023-02-09T05:59:04.622Z,1030.23
2023-02-09T06:00:03.388Z,1030.20
2023-02-09T06:01:03.363Z,1030.21
2023-02-09T06:02:03.379Z,1030.16
2023-02-09T06:03:03.217Z,1030.18
2023-02-09T06:04:03.197Z,1030.21
2023-02-09T06:05:03.175Z,1030.20
2023-02-09T06:06:03.109Z,1030.18
2023-02-09T06:07:03.104Z,1030.19
2023-02-09T06:08:03.061Z,1030.19
2023-02-09T06:09:02.955Z,1030.22
2023-02-09T06:10:02.927Z,1030.19
2023-02-09T06:11:02.895Z,1030.21
2023-02-09T06:12:02.867Z,1030.20
2023-02-09T06:13:02.910Z,1030.22
2023-02-09T06:14:02.759Z,1030.19
2023-02-09T06:15:02.714Z,1030.14
2023-02-09T06:16:02.734Z,1030.15
2023-02-09T06:17:02.706Z,1030.20
2023-02-09T06:18:02.619Z,1030.20
2023-02-09T06:19:02.622Z,1030.22
2023-02-09T06:20:02.506Z,1030.22
2023-02-09T06:21:02.495Z,1030.24
2023-02-09T06:22:02.450Z,1030.24
2023-02-09T06:23:02.400Z,1030.24
2023-02-09T06:24:02.327Z,1030.23
2023-02-09T06:25:02.368Z,1030.22
2023-02-09T06:26:02.253Z,1030.25
2023-02-09T06:27:02.229Z,1030.24
2023-02-09T06:28:02.314Z,1030.21
2023-02-09T06:29:02.154Z,1030.21
2023-02-09T06:30:02.129Z,1030.27
2023-02-09T06:31:02.195Z,1030.28
2023-02-09T06:32:02.165Z,1030.33
2023-02-09T06:33:01.962Z,1030.31
2023-02-09T06:34:01.943Z,1030.34
2023-02-09T06:35:01.874Z,1030.30
2023-02-09T06:36:01.842Z,1030.28
2023-02-09T06:37:01.881Z,1030.30
2023-02-09T06:38:01.758Z,1030.30
2023-02-09T06:39:01.730Z,1030.34
2023-02-09T06:40:01.678Z,1030.26
2023-02-09T06:41:01.652Z,1030.34
2023-02-09T06:42:01.581Z,1030.31
2023-02-09T06:43:02.851Z,1030.31
2023-02-09T06:44:01.597Z,1030.32
2023-02-09T06:45:01.480Z,1030.34
2023-02-09T06:46:01.448Z,1030.34
2023-02-09T06:47:01.437Z,1030.34
2023-02-09T06:48:01.351Z,1030.40
2023-02-09T06:49:01.361Z,1030.38
2023-02-09T06:50:01.266Z,1030.36
2023-02-09T06:51:01.210Z,1030.37
2023-02-09T06:52:01.198Z,1030.39
2023-02-09T06:53:01.159Z,1030.35
2023-02-09T06:54:01.110Z,1030.32
2023-02-09T06:55:01.119Z,1030.33
2023-02-09T06:56:01.036Z,1030.34
2023-02-09T06:57:00.974Z,1030.35
2023-02-09T06:58:00.955Z,1030.35
2023-02-09T06:59:00.920Z,1030.34
2023-02-09T07:00:00.875Z,1030.30
2023-02-09T07:01:00.871Z,1030.34
2023-02-09T07:02:00.820Z,1030.36
2023-02-09T07:03:00.835Z,1030.34
2023-02-09T07:04:00.717Z,1030.37
2023-02-09T07:05:00.690Z,1030.37
2023-02-09T07:06:00.620Z,1030.36
2023-02-09T07:07:00.640Z,1030.40
2023-02-09T07:08:00.519Z,1030.40
2023-02-09T07:09:00.523Z,1030.40
2023-02-09T07:10:00.443Z,1030.36
2023-02-09T07:11:00.427Z,1030.37
2023-02-09T07:12:00.377Z,1030.35
2023-02-09T07:13:00.389Z,1030.36
2023-02-09T07:14:00.308Z,1030.34
2023-02-09T07:15:00.244Z,1030.33
2023-02-09T07:16:00.223Z,1030.38
2023-02-09T07:17:00.140Z,1030.38
2023-02-09T07:18:00.122Z,1030.38
2023-02-09T07:19:01.137Z,1030.38
2023-02-09T07:20:00.048Z,1030.36
2023-02-09T07:21:00.100Z,1030.36
2023-02-09T07:21:59.935Z,1030.37
2023-02-09T07:22:59.922Z,1030.39
2023-02-09T07:23:59.943Z,1030.34
2023-02-09T07:24:59.839Z,1030.35
2023-02-09T07:25:59.847Z,1030.31
2023-02-09T07:26:59.731Z,1030.28
2023-02-09T07:27:59.732Z,1030.34
2023-02-09T07:28:59.664Z,1030.31
2023-02-09T07:30:01.090Z,1030.21
2023-02-09T07:30:59.717Z,1030.20
2023-02-09T07:31:59.670Z,1030.20
2023-02-09T07:32:59.504Z,1030.26
2023-02-09T07:33:59.445Z,1030.24
2023-02-09T07:34:59.397Z,1030.26
2023-02-09T07:35:59.426Z,1030.27
2023-02-09T07:36:59.319Z,1030.22
2023-02-09T07:37:59.331Z,1030.22
2023-02-09T07:38:59.242Z,1030.26
2023-02-09T07:39:59.207Z,1030.28
2023-02-09T07:40:59.190Z,1030.30
2023-02-09T07:41:59.109Z,1030.27
2023-02-09T07:42:59.069Z,1030.25
2023-02-09T07:43:59.092Z,1030.29
2023-02-09T07:44:58.995Z,1030.27
2023-02-09T07:45:59.064Z,1030.25
2023-02-09T07:46:59.117Z,1030.25
2023-02-09T07:47:59.021Z,1030.23
2023-02-09T07:49:01.237Z,1030.26
2023-02-09T07:49:58.847Z,1030.31
2023-02-09T07:50:58.754Z,1030.29
2023-02-09T07:51:58.723Z,1030.29
2023-02-09T07:52:59.345Z,1030.29
2023-02-09T07:53:58.648Z,1030.31
2023-02-09T07:54:58.587Z,1030.29
2023-02-09T07:55:58.607Z,1030.33
2023-02-09T07:56:59.401Z,1030.29
2023-02-09T07:57:58.475Z,1030.27
2023-02-09T07:58:58.404Z,1030.29
2023-02-09T07:59:58.378Z,1030.25
2023-02-09T08:00:59.893Z,1030.24
2023-02-09T08:01:58.374Z,1030.20
2023-02-09T08:02:58.251Z,1030.24
2023-02-09T08:03:58.204Z,1030.20
2023-02-09T08:04:58.869Z,1030.22
2023-02-09T08:05:58.143Z,1030.22
2023-02-09T08:06:58.110Z,1030.18
2023-02-09T08:07:58.121Z,1030.13
2023-02-09T08:08:58.013Z,1030.13
2023-02-09T08:09:58.024Z,1030.16
2023-02-09T08:10:57.982Z,1030.15
2023-02-09T08:11:57.958Z,1030.17
2023-02-09T08:12:57.855Z,1030.18
2023-02-09T08:13:57.875Z,1030.14
2023-02-09T08:15:00.287Z,1030.19
2023-02-09T08:15:57.773Z,1030.14
2023-02-09T08:16:58.784Z,1030.15
2023-02-09T08:17:57.649Z,1030.12
2023-02-09T08:18:57.608Z,1030.11
2023-02-09T08:19:57.654Z,1030.04
2023-02-09T08:20:57.519Z,1030.02
2023-02-09T08:21:57.553Z,1030.03
2023-02-09T08:22:57.480Z,1030.00
2023-02-09T08:23:57.392Z,1029.97
2023-02-09T08:24:57.377Z,1029.95
2023-02-09T08:25:57.378Z,1029.97
2023-02-09T08:26:57.346Z,1029.89
2023-02-09T08:27:57.267Z,1029.96
2023-02-09T08:28:57.268Z,1029.95
2023-02-09T08:29:57.162Z,1029.96
2023-02-09T08:30:57.162Z,1029.95
2023-02-09T08:31:57.213Z,1029.91
2023-02-09T08:32:57.044Z,1029.94
2023-02-09T08:33:57.057Z,1029.87
2023-02-09T08:34:56.957Z,1029.84
2023-02-09T08:35:56.955Z,1029.80
2023-02-09T08:36:56.933Z,1029.73
2023-02-09T08:37:56.902Z,1029.81
2023-02-09T08:38:56.818Z,1029.81
2023-02-09T08:39:56.759Z,1029.77
2023-02-09T08:40:56.750Z,1029.80
2023-02-09T08:41:56.683Z,1029.80
2023-02-09T08:42:56.765Z,1029.87
2023-02-09T08:43:56.593Z,1029.92
2023-02-09T08:44:56.566Z,1029.98
2023-02-09T08:45:56.638Z,1029.95
2023-02-09T08:46:56.590Z,1030.02
2023-02-09T08:47:56.432Z,1030.02
2023-02-09T08:48:56.466Z,1030.08
2023-02-09T08:49:56.361Z,1030.02
2023-02-09T08:50:56.318Z,1030.02
2023-02-09T08:51:56.270Z,1030.01
2023-02-09T08:52:56.273Z,1030.01
2023-02-09T08:53:56.196Z,1030.04
2023-02-09T08:54:56.242Z,1029.99
2023-02-09T08:55:56.126Z,1030.04
2023-02-09T08:56:56.097Z,1029.99
2023-02-09T08:57:56.089Z,1030.06
2023-02-09T08:58:56.044Z,1030.04
2023-02-09T08:59:55.989Z,1030.05
2023-02-09T09:00:56.028Z,1030.01
2023-02-09T09:01:55.881Z,1030.03
2023-02-09T09:02:55.858Z,1030.03
2023-02-09T09:03:55.865Z,1030.01
2023-02-09T09:04:55.765Z,1029.98
2023-02-09T09:05:55.724Z,1030.02
2023-02-09T09:06:55.754Z,1029.94
2023-02-09T09:07:55.656Z,1029.91
2023-02-09T09:08:55.628Z,1029.94
2023-02-09T09:09:55.575Z,1029.97
2023-02-09T09:10:55.565Z,1030.00
2023-02-09T09:11:55.506Z,1029.97
2023-02-09T09:12:55.536Z,1029.99
2023-02-09T09:13:55.434Z,1029.96
2023-02-09T09:14:55.392Z,1029.88
2023-02-09T09:15:55.353Z,1029.92
2023-02-09T09:16:55.343Z,1029.84
2023-02-09T09:17:55.258Z,1029.85
2023-02-09T09:18:55.275Z,1029.87
2023-02-09T09:19:55.245Z,1029.86
2023-02-09T09:20:55.152Z,1029.86
2023-02-09T09:21:55.188Z,1029.86
2023-02-09T09:22:55.092Z,1029.89
2023-02-09T09:23:55.803Z,1029.86
2023-02-09T09:24:54.970Z,1029.92
2023-02-09T09:25:54.950Z,1030.00
2023-02-09T09:26:54.919Z,1030.04
2023-02-09T09:27:54.953Z,1030.06
2023-02-09T09:28:54.862Z,1030.12
2023-02-09T09:29:54.804Z,1030.13
2023-02-09T09:30:54.880Z,1030.13
2023-02-09T09:31:54.759Z,1030.11
2023-02-09T09:32:54.809Z,1030.08
2023-02-09T09:33:54.655Z,1030.03
2023-02-09T09:34:54.607Z,1029.98
2023-02-09T09:35:54.553Z,1030.00
2023-02-09T09:36:54.526Z,1030.00
2023-02-09T09:37:54.550Z,1030.00
2023-02-09T09:38:56.441Z,1029.97
2023-02-09T09:39:54.398Z,1029.95
2023-02-09T09:40:54.358Z,1029.91
2023-02-09T09:41:54.328Z,1029.91
2023-02-09T09:42:54.293Z,1029.87
2023-02-09T09:43:54.320Z,1029.87
2023-02-09T09:44:54.198Z,1029.87
2023-02-09T09:45:54.212Z,1029.79
2023-02-09T09:46:54.122Z,1029.81
2023-02-09T09:47:54.094Z,1029.80
2023-02-09T09:48:54.122Z,1029.76
2023-02-09T09:49:54.019Z,1029.68
2023-02-09T09:50:53.956Z,1029.66
2023-02-09T09:51:53.922Z,1029.56
2023-02-09T09:52:53.893Z,1029.63
2023-02-09T09:53:53.859Z,1029.53
2023-02-09T09:54:53.867Z,1029.56
2023-02-09T09:55:53.769Z,1029.45
2023-02-09T09:56:53.746Z,1029.44
2023-02-09T09:57:53.698Z,1029.47
2023-02-09T09:58:53.649Z,1029.45
2023-02-09T09:59:53.620Z,1029.45
2023-02-09T10:00:53.733Z,1029.44
2023-02-09T10:01:53.560Z,1029.45
2023-02-09T10:02:53.502Z,1029.46
2023-02-09T10:03:53.474Z,1029.41
2023-02-09T10:04:53.645Z,1029.44
2023-02-09T10:05:53.388Z,1029.40
2023-02-09T10:06:53.406Z,1029.37
2023-02-09T10:07:53.360Z,1029.43
2023-02-09T10:08:53.270Z,1029.39
2023-02-09T10:09:53.258Z,1029.39
2023-02-09T10:10:53.187Z,1029.37
2023-02-09T10:11:53.159Z,1029.35
2023-02-09T10:12:53.178Z,1029.42
2023-02-09T10:13:53.145Z,1029.37
2023-02-09T10:14:53.030Z,1029.42
2023-02-09T10:15:53.015Z,1029.44
2023-02-09T10:16:52.999Z,1029.43
2023-02-09T10:17:53.041Z,1029.43
2023-02-09T10:18:52.877Z,1029.43
2023-02-09T10:19:53.796Z,1029.43
2023-02-09T10:20:52.809Z,1029.38
2023-02-09T10:21:52.768Z,1029.40
2023-02-09T10:22:52.720Z,1029.38
2023-02-09T10:23:52.795Z,1029.38
2023-02-09T10:24:52.650Z,1029.38
2023-02-09T10:25:52.635Z,1029.35
2023-02-09T10:26:52.575Z,1029.37
2023-02-09T10:27:52.616Z,1029.40
2023-02-09T10:28:52.497Z,1029.40
2023-02-09T10:29:52.538Z,1029.37
2023-02-09T10:30:52.507Z,1029.38
2023-02-09T10:31:52.445Z,1029.37
2023-02-09T10:32:52.347Z,1029.35
2023-02-09T10:33:52.344Z,1029.35
2023-02-09T10:34:52.284Z,1029.33
2023-02-09T10:35:52.293Z,1029.23
2023-02-09T10:36:52.220Z,1029.20
2023-02-09T10:37:52.146Z,1029.19
2023-02-09T10:38:52.186Z,1029.14
2023-02-09T10:39:52.071Z,1029.11
2023-02-09T10:40:52.039Z,1029.10
2023-02-09T10:41:52.092Z,1029.06
2023-02-09T10:42:51.983Z,1029.13
2023-02-09T10:43:51.923Z,1029.06
2023-02-09T10:44:51.883Z,1029.08
2023-02-09T10:45:51.862Z,1029.07
2023-02-09T10:46:51.867Z,1029.01
2023-02-09T10:47:51.765Z,1029.00
2023-02-09T10:48:51.730Z,1028.97
2023-02-09T10:49:53.264Z,1028.86
2023-02-09T10:50:51.658Z,1028.89
2023-02-09T10:51:51.701Z,1028.79
2023-02-09T10:52:51.593Z,1028.92
2023-02-09T10:53:51.557Z,1028.93
2023-02-09T10:54:51.498Z,1028.93
2023-02-09T10:55:51.471Z,1028.96
2023-02-09T10:56:51.446Z,1028.98
2023-02-09T10:57:51.464Z,1028.98
2023-02-09T10:58:51.368Z,1028.97
2023-02-09T10:59:51.322Z,1028.97
2023-02-09T11:00:51.286Z,1028.97
2023-02-09T11:01:51.313Z,1028.96
2023-02-09T11:02:51.224Z,1028.91
2023-02-09T11:03:51.260Z,1028.90
2023-02-09T11:04:51.146Z,1028.90
2023-02-09T11:05:51.093Z,1028.86
2023-02-09T11:06:51.047Z,1028.89
2023-02-09T11:07:51.030Z,1028.85
2023-02-09T11:08:51.007Z,1028.84
2023-02-09T11:09:51.054Z,1028.88
2023-02-09T11:10:50.912Z,1028.88
2023-02-09T11:11:50.868Z,1028.89
2023-02-09T11:12:50.827Z,1028.83
2023-02-09T11:13:50.817Z,1028.78
2023-02-09T11:14:50.782Z,1028.78
2023-02-09T11:15:50.801Z,1028.83
2023-02-09T11:16:50.734Z,1028.83
2023-02-09T11:17:50.681Z,1028.89
2023-02-09T11:18:50.599Z,1028.89
2023-02-09T11:19:50.564Z,1028.93
2023-02-09T11:20:50.530Z,1028.96
2023-02-09T11:21:50.552Z,1029.00
2023-02-09T11:22:50.478Z,1029.01
2023-02-09T11:23:50.451Z,1028.90
2023-02-09T11:24:50.379Z,1028.88
2023-02-09T11:25:50.331Z,1028.95
2023-02-09T11:26:50.344Z,1028.84
2023-02-09T11:27:50.291Z,1028.84
2023-02-09T11:28:50.278Z,1028.82
2023-02-09T11:29:50.222Z,1028.81
2023-02-09T11:30:50.621Z,1028.78
2023-02-09T11:31:50.208Z,1028.80
2023-02-09T11:32:50.190Z,1028.78
2023-02-09T11:33:50.061Z,1028.78
2023-02-09T11:34:50.041Z,1028.76
2023-02-09T11:35:49.995Z,1028.74
2023-02-09T11:36:49.923Z,1028.74
2023-02-09T11:37:49.887Z,1028.76
2023-02-09T11:38:49.914Z,1028.70
2023-02-09T11:39:49.831Z,1028.79
2023-02-09T11:40:49.764Z,1028.82
2023-02-09T11:41:49.749Z,1028.77
2023-02-09T11:42:49.708Z,1028.77
2023-02-09T11:43:49.669Z,1028.85
2023-02-09T11:44:49.705Z,1028.78
2023-02-09T11:45:50.375Z,1028.84
2023-02-09T11:46:49.604Z,1028.80
2023-02-09T11:47:49.598Z,1028.80
2023-02-09T11:48:49.500Z,1028.83
2023-02-09T11:49:49.437Z,1028.79
2023-02-09T11:50:49.437Z,1028.82
2023-02-09T11:51:49.372Z,1028.78
2023-02-09T11:52:49.309Z,1028.72
2023-02-09T11:53:49.281Z,1028.78
2023-02-09T11:54:49.246Z,1028.71
2023-02-09T11:55:49.195Z,1028.71
2023-02-09T11:56:49.246Z,1028.73
2023-02-09T11:57:49.124Z,1028.71
2023-02-09T11:58:49.087Z,1028.76
2023-02-09T11:59:49.052Z,1028.70
2023-02-09T12:00:57.821Z,1028.68
2023-02-09T12:01:48.996Z,1028.68
2023-02-09T12:02:49.091Z,1028.60
2023-02-09T12:03:48.900Z,1028.59
2023-02-09T12:04:48.946Z,1028.58